sensor_id;sensor_type;location;lat;lon;timestamp;P1;durP1;ratioP1;P2;durP2;ratioP2
78453;SDS011;67750;55.832;49.124;2023-05-10T00:02:24;8.40;;;4.20;;
78453;SDS011;67750;55.832;49.124;2023-05-10T00:04:53;9.20;;;4.50;;
78453;SDS011;67750;55.832;49.124;2023-05-10T00:07:23;8.75;;;4.33;;
78453;SDS011;67750;55.832;49.124;2023-05-10T00:09:52;11.33;;;4.50;;
78453;SDS011;67750;55.832;49.124;2023-05-10T00:12:21;7.05;;;3.92;;
78453;SDS011;67750;55.832;49.124;2023-05-10T00:14:51;13.00;;;4.35;;
78453;SDS011;67750;55.832;49.124;2023-05-10T00:17:20;10.32;;;4.62;;
78453;SDS011;67750;55.832;49.124;2023-05-10T00:19:50;10.75;;;4.50;;
78453;SDS011;67750;55.832;49.124;2023-05-10T00:22:19;7.60;;;4.03;;
78453;SDS011;67750;55.832;49.124;2023-05-10T00:24:49;9.68;;;4.35;;
78453;SDS011;67750;55.832;49.124;2023-05-10T00:27:18;9.13;;;3.58;;
78453;SDS011;67750;55.832;49.124;2023-05-10T00:29:48;9.45;;;3.87;;
78453;SDS011;67750;55.832;49.124;2023-05-10T00:32:18;7.12;;;3.87;;
78453;SDS011;67750;55.832;49.124;2023-05-10T00:34:48;8.38;;;3.92;;
78453;SDS011;67750;55.832;49.124;2023-05-10T00:37:17;6.95;;;3.70;;
78453;SDS011;67750;55.832;49.124;2023-05-10T00:39:47;5.87;;;3.22;;
78453;SDS011;67750;55.832;49.124;2023-05-10T00:42:16;6.45;;;3.12;;
78453;SDS011;67750;55.832;49.124;2023-05-10T00:44:46;7.65;;;3.85;;
78453;SDS011;67750;55.832;49.124;2023-05-10T00:47:16;5.85;;;2.98;;
78453;SDS011;67750;55.832;49.124;2023-05-10T00:49:46;11.20;;;3.70;;
78453;SDS011;67750;55.832;49.124;2023-05-10T00:52:15;7.00;;;3.12;;
78453;SDS011;67750;55.832;49.124;2023-05-10T00:54:45;5.55;;;2.77;;
78453;SDS011;67750;55.832;49.124;2023-05-10T00:57:16;7.62;;;3.10;;
78453;SDS011;67750;55.832;49.124;2023-05-10T00:59:45;7.33;;;3.92;;
78453;SDS011;67750;55.832;49.124;2023-05-10T01:02:15;6.08;;;3.10;;
78453;SDS011;67750;55.832;49.124;2023-05-10T01:04:44;8.13;;;3.17;;
78453;SDS011;67750;55.832;49.124;2023-05-10T01:07:14;6.60;;;3.02;;
78453;SDS011;67750;55.832;49.124;2023-05-10T01:09:44;4.95;;;3.00;;
78453;SDS011;67750;55.832;49.124;2023-05-10T01:12:13;7.22;;;3.42;;
78453;SDS011;67750;55.832;49.124;2023-05-10T01:14:43;7.10;;;2.80;;
78453;SDS011;67750;55.832;49.124;2023-05-10T01:17:13;6.25;;;2.72;;
78453;SDS011;67750;55.832;49.124;2023-05-10T01:19:43;8.93;;;2.98;;
78453;SDS011;67750;55.832;49.124;2023-05-10T01:22:32;7.70;;;2.60;;
78453;SDS011;67750;55.832;49.124;2023-05-10T01:24:49;5.10;;;2.77;;
78453;SDS011;67750;55.832;49.124;2023-05-10T01:49:16;4.87;;;2.58;;
78453;SDS011;67750;55.832;49.124;2023-05-10T01:51:45;4.33;;;2.25;;
78453;SDS011;67750;55.832;49.124;2023-05-10T01:54:16;4.55;;;2.30;;
78453;SDS011;67750;55.832;49.124;2023-05-10T01:59:36;6.90;;;2.98;;
78453;SDS011;67750;55.832;49.124;2023-05-10T02:02:08;4.62;;;2.65;;
78453;SDS011;67750;55.832;49.124;2023-05-10T02:04:39;4.95;;;2.52;;
78453;SDS011;67750;55.832;49.124;2023-05-10T02:07:09;7.42;;;2.98;;
78453;SDS011;67750;55.832;49.124;2023-05-10T02:09:40;7.08;;;2.60;;
78453;SDS011;67750;55.832;49.124;2023-05-10T02:12:11;7.47;;;2.85;;
78453;SDS011;67750;55.832;49.124;2023-05-10T02:14:42;5.28;;;2.55;;
78453;SDS011;67750;55.832;49.124;2023-05-10T02:17:12;5.67;;;2.60;;
78453;SDS011;67750;55.832;49.124;2023-05-10T02:19:43;5.45;;;2.52;;
78453;SDS011;67750;55.832;49.124;2023-05-10T02:22:14;4.92;;;2.83;;
78453;SDS011;67750;55.832;49.124;2023-05-10T02:24:44;4.92;;;2.25;;
78453;SDS011;67750;55.832;49.124;2023-05-10T02:27:35;4.08;;;2.15;;
78453;SDS011;67750;55.832;49.124;2023-05-10T02:30:07;4.83;;;2.40;;
78453;SDS011;67750;55.832;49.124;2023-05-10T02:32:38;7.37;;;2.67;;
78453;SDS011;67750;55.832;49.124;2023-05-10T02:35:08;5.65;;;2.70;;
78453;SDS011;67750;55.832;49.124;2023-05-10T02:37:39;7.03;;;2.65;;
78453;SDS011;67750;55.832;49.124;2023-05-10T02:40:09;11.40;;;2.77;;
78453;SDS011;67750;55.832;49.124;2023-05-10T02:42:39;22.02;;;4.45;;
78453;SDS011;67750;55.832;49.124;2023-05-10T02:47:59;9.60;;;3.30;;
78453;SDS011;67750;55.832;49.124;2023-05-10T02:50:31;6.95;;;2.83;;
78453;SDS011;67750;55.832;49.124;2023-05-10T02:53:03;6.45;;;2.67;;
78453;SDS011;67750;55.832;49.124;2023-05-10T02:55:34;6.28;;;2.80;;
78453;SDS011;67750;55.832;49.124;2023-05-10T02:58:03;7.25;;;2.50;;
78453;SDS011;67750;55.832;49.124;2023-05-10T03:00:33;11.03;;;3.05;;
78453;SDS011;67750;55.832;49.124;2023-05-10T03:03:03;10.03;;;2.75;;
78453;SDS011;67750;55.832;49.124;2023-05-10T03:05:33;6.15;;;2.70;;
78453;SDS011;67750;55.832;49.124;2023-05-10T03:08:03;4.15;;;2.50;;
78453;SDS011;67750;55.832;49.124;2023-05-10T03:10:33;10.68;;;2.98;;
78453;SDS011;67750;55.832;49.124;2023-05-10T03:16:32;8.00;;;2.50;;
78453;SDS011;67750;55.832;49.124;2023-05-10T03:21:14;4.62;;;2.30;;
78453;SDS011;67750;55.832;49.124;2023-05-10T03:26:38;4.65;;;2.42;;
78453;SDS011;67750;55.832;49.124;2023-05-10T03:31:52;6.15;;;2.30;;
78453;SDS011;67750;55.832;49.124;2023-05-10T03:37:11;4.37;;;2.37;;
78453;SDS011;67750;55.832;49.124;2023-05-10T03:39:41;8.38;;;2.50;;
78453;SDS011;67750;55.832;49.124;2023-05-10T03:42:11;4.47;;;2.10;;
78453;SDS011;67750;55.832;49.124;2023-05-10T03:44:40;4.62;;;2.12;;
78453;SDS011;67750;55.832;49.124;2023-05-10T03:47:10;8.83;;;2.52;;
78453;SDS011;67750;55.832;49.124;2023-05-10T03:49:40;5.30;;;2.10;;
78453;SDS011;67750;55.832;49.124;2023-05-10T03:52:13;6.08;;;2.30;;
78453;SDS011;67750;55.832;49.124;2023-05-10T03:54:50;8.28;;;2.42;;
78453;SDS011;67750;55.832;49.124;2023-05-10T04:00:09;8.73;;;2.42;;
78453;SDS011;67750;55.832;49.124;2023-05-10T04:02:59;7.78;;;2.90;;
78453;SDS011;67750;55.832;49.124;2023-05-10T04:05:28;6.80;;;2.75;;
78453;SDS011;67750;55.832;49.124;2023-05-10T04:07:58;6.05;;;2.58;;
78453;SDS011;67750;55.832;49.124;2023-05-10T04:10:30;6.53;;;2.83;;
78453;SDS011;67750;55.832;49.124;2023-05-10T04:12:59;6.12;;;2.58;;
78453;SDS011;67750;55.832;49.124;2023-05-10T04:15:29;11.05;;;3.00;;
78453;SDS011;67750;55.832;49.124;2023-05-10T04:17:58;7.25;;;2.72;;
78453;SDS011;67750;55.832;49.124;2023-05-10T04:20:28;10.48;;;2.90;;
78453;SDS011;67750;55.832;49.124;2023-05-10T04:22:57;7.53;;;2.40;;
78453;SDS011;67750;55.832;49.124;2023-05-10T04:28:38;6.67;;;2.50;;
78453;SDS011;67750;55.832;49.124;2023-05-10T04:31:09;7.72;;;2.40;;
78453;SDS011;67750;55.832;49.124;2023-05-10T04:33:39;10.72;;;2.52;;
78453;SDS011;67750;55.832;49.124;2023-05-10T04:36:08;5.42;;;2.92;;
78453;SDS011;67750;55.832;49.124;2023-05-10T04:38:38;7.10;;;2.30;;
78453;SDS011;67750;55.832;49.124;2023-05-10T04:41:08;9.05;;;2.50;;
78453;SDS011;67750;55.832;49.124;2023-05-10T04:43:38;7.85;;;2.87;;
78453;SDS011;67750;55.832;49.124;2023-05-10T04:46:08;9.88;;;2.72;;
78453;SDS011;67750;55.832;49.124;2023-05-10T04:48:37;8.55;;;2.95;;
78453;SDS011;67750;55.832;49.124;2023-05-10T04:51:07;10.20;;;3.80;;
78453;SDS011;67750;55.832;49.124;2023-05-10T04:53:36;7.87;;;3.30;;
78453;SDS011;67750;55.832;49.124;2023-05-10T04:56:06;8.55;;;3.67;;
78453;SDS011;67750;55.832;49.124;2023-05-10T04:58:35;7.47;;;2.90;;
78453;SDS011;67750;55.832;49.124;2023-05-10T05:01:06;8.65;;;2.83;;
78453;SDS011;67750;55.832;49.124;2023-05-10T05:03:36;5.75;;;2.70;;
78453;SDS011;67750;55.832;49.124;2023-05-10T05:06:06;6.58;;;2.30;;
78453;SDS011;67750;55.832;49.124;2023-05-10T05:08:35;4.72;;;1.87;;
78453;SDS011;67750;55.832;49.124;2023-05-10T05:11:05;9.50;;;1.90;;
78453;SDS011;67750;55.832;49.124;2023-05-10T05:13:34;6.90;;;2.00;;
78453;SDS011;67750;55.832;49.124;2023-05-10T05:16:04;3.30;;;1.60;;
78453;SDS011;67750;55.832;49.124;2023-05-10T05:18:34;8.58;;;2.35;;
78453;SDS011;67750;55.832;49.124;2023-05-10T05:21:12;8.20;;;2.35;;
78453;SDS011;67750;55.832;49.124;2023-05-10T05:23:34;5.40;;;1.65;;
78453;SDS011;67750;55.832;49.124;2023-05-10T05:26:04;3.47;;;1.72;;
78453;SDS011;67750;55.832;49.124;2023-05-10T05:28:33;3.90;;;1.60;;
78453;SDS011;67750;55.832;49.124;2023-05-10T05:31:04;4.33;;;1.40;;
78453;SDS011;67750;55.832;49.124;2023-05-10T05:33:36;6.92;;;3.55;;
78453;SDS011;67750;55.832;49.124;2023-05-10T05:36:05;9.45;;;1.72;;
78453;SDS011;67750;55.832;49.124;2023-05-10T05:38:35;5.55;;;1.52;;
78453;SDS011;67750;55.832;49.124;2023-05-10T05:41:04;4.50;;;1.20;;
78453;SDS011;67750;55.832;49.124;2023-05-10T05:43:34;4.50;;;1.12;;
78453;SDS011;67750;55.832;49.124;2023-05-10T05:46:04;6.72;;;1.30;;
78453;SDS011;67750;55.832;49.124;2023-05-10T05:48:33;3.02;;;1.30;;
78453;SDS011;67750;55.832;49.124;2023-05-10T05:51:03;4.05;;;1.40;;
78453;SDS011;67750;55.832;49.124;2023-05-10T05:53:33;4.58;;;1.02;;
78453;SDS011;67750;55.832;49.124;2023-05-10T05:56:03;9.28;;;1.10;;
78453;SDS011;67750;55.832;49.124;2023-05-10T05:58:33;4.17;;;0.95;;
78453;SDS011;67750;55.832;49.124;2023-05-10T06:01:02;3.27;;;1.30;;
78453;SDS011;67750;55.832;49.124;2023-05-10T06:03:32;3.22;;;0.90;;
78453;SDS011;67750;55.832;49.124;2023-05-10T06:06:01;2.02;;;0.90;;
78453;SDS011;67750;55.832;49.124;2023-05-10T06:08:31;2.67;;;1.00;;
78453;SDS011;67750;55.832;49.124;2023-05-10T06:11:01;10.10;;;1.52;;
78453;SDS011;67750;55.832;49.124;2023-05-10T06:13:31;1.52;;;0.70;;
78453;SDS011;67750;55.832;49.124;2023-05-10T06:18:51;1.75;;;0.95;;
78453;SDS011;67750;55.832;49.124;2023-05-10T06:21:21;2.30;;;0.70;;
78453;SDS011;67750;55.832;49.124;2023-05-10T06:23:50;4.08;;;0.90;;
78453;SDS011;67750;55.832;49.124;2023-05-10T06:26:20;2.22;;;0.70;;
78453;SDS011;67750;55.832;49.124;2023-05-10T06:28:49;1.30;;;0.70;;
78453;SDS011;67750;55.832;49.124;2023-05-10T06:31:19;3.02;;;0.70;;
78453;SDS011;67750;55.832;49.124;2023-05-10T06:33:48;1.87;;;0.75;;
78453;SDS011;67750;55.832;49.124;2023-05-10T06:36:17;1.80;;;0.70;;
78453;SDS011;67750;55.832;49.124;2023-05-10T06:38:47;4.00;;;1.25;;
78453;SDS011;67750;55.832;49.124;2023-05-10T06:41:18;1.77;;;0.68;;
78453;SDS011;67750;55.832;49.124;2023-05-10T06:43:47;3.33;;;0.80;;
78453;SDS011;67750;55.832;49.124;2023-05-10T06:46:37;2.35;;;0.70;;
78453;SDS011;67750;55.832;49.124;2023-05-10T06:49:07;2.27;;;1.10;;
78453;SDS011;67750;55.832;49.124;2023-05-10T06:51:37;1.40;;;0.80;;
78453;SDS011;67750;55.832;49.124;2023-05-10T06:54:07;2.60;;;0.80;;
78453;SDS011;67750;55.832;49.124;2023-05-10T06:56:36;2.87;;;0.80;;
78453;SDS011;67750;55.832;49.124;2023-05-10T06:59:06;1.75;;;0.90;;
78453;SDS011;67750;55.832;49.124;2023-05-10T07:01:35;1.70;;;0.80;;
78453;SDS011;67750;55.832;49.124;2023-05-10T07:04:05;1.40;;;0.60;;
78453;SDS011;67750;55.832;49.124;2023-05-10T07:06:34;3.15;;;0.70;;
78453;SDS011;67750;55.832;49.124;2023-05-10T07:09:04;2.33;;;0.82;;
78453;SDS011;67750;55.832;49.124;2023-05-10T07:11:34;2.52;;;0.60;;
78453;SDS011;67750;55.832;49.124;2023-05-10T07:14:04;2.15;;;0.70;;
78453;SDS011;67750;55.832;49.124;2023-05-10T07:16:33;2.70;;;0.80;;
78453;SDS011;67750;55.832;49.124;2023-05-10T07:19:03;1.10;;;0.70;;
78453;SDS011;67750;55.832;49.124;2023-05-10T07:21:32;3.95;;;0.70;;
78453;SDS011;67750;55.832;49.124;2023-05-10T07:24:02;1.42;;;0.70;;
78453;SDS011;67750;55.832;49.124;2023-05-10T07:26:32;2.80;;;0.90;;
78453;SDS011;67750;55.832;49.124;2023-05-10T07:29:01;1.50;;;0.80;;
78453;SDS011;67750;55.832;49.124;2023-05-10T07:31:31;2.37;;;0.68;;
78453;SDS011;67750;55.832;49.124;2023-05-10T07:34:00;1.45;;;0.80;;
78453;SDS011;67750;55.832;49.124;2023-05-10T07:36:30;3.22;;;0.95;;
78453;SDS011;67750;55.832;49.124;2023-05-10T07:38:59;1.62;;;0.72;;
78453;SDS011;67750;55.832;49.124;2023-05-10T07:41:29;2.15;;;0.80;;
78453;SDS011;67750;55.832;49.124;2023-05-10T07:43:59;1.47;;;0.60;;
78453;SDS011;67750;55.832;49.124;2023-05-10T07:46:29;1.90;;;0.80;;
78453;SDS011;67750;55.832;49.124;2023-05-10T07:48:58;1.30;;;0.75;;
78453;SDS011;67750;55.832;49.124;2023-05-10T07:51:28;2.67;;;0.80;;
78453;SDS011;67750;55.832;49.124;2023-05-10T07:53:58;2.08;;;0.82;;
78453;SDS011;67750;55.832;49.124;2023-05-10T07:56:30;2.80;;;0.80;;
78453;SDS011;67750;55.832;49.124;2023-05-10T07:59:00;1.20;;;0.68;;
78453;SDS011;67750;55.832;49.124;2023-05-10T08:01:31;1.52;;;0.80;;
78453;SDS011;67750;55.832;49.124;2023-05-10T08:04:00;0.98;;;0.60;;
78453;SDS011;67750;55.832;49.124;2023-05-10T08:06:30;2.33;;;0.85;;
78453;SDS011;67750;55.832;49.124;2023-05-10T08:08:59;5.08;;;0.95;;
78453;SDS011;67750;55.832;49.124;2023-05-10T08:11:29;4.45;;;1.00;;
78453;SDS011;67750;55.832;49.124;2023-05-10T08:13:59;2.50;;;0.75;;
78453;SDS011;67750;55.832;49.124;2023-05-10T08:16:28;3.67;;;0.85;;
78453;SDS011;67750;55.832;49.124;2023-05-10T08:18:58;4.65;;;0.82;;
78453;SDS011;67750;55.832;49.124;2023-05-10T08:21:28;2.58;;;0.80;;
78453;SDS011;67750;55.832;49.124;2023-05-10T08:23:58;4.65;;;0.78;;
78453;SDS011;67750;55.832;49.124;2023-05-10T08:26:28;3.58;;;0.80;;
78453;SDS011;67750;55.832;49.124;2023-05-10T08:28:57;1.60;;;0.85;;
78453;SDS011;67750;55.832;49.124;2023-05-10T08:31:27;0.72;;;0.53;;
78453;SDS011;67750;55.832;49.124;2023-05-10T08:33:57;1.85;;;0.70;;
78453;SDS011;67750;55.832;49.124;2023-05-10T08:36:27;5.15;;;1.15;;
78453;SDS011;67750;55.832;49.124;2023-05-10T08:38:56;1.80;;;0.82;;
78453;SDS011;67750;55.832;49.124;2023-05-10T08:41:26;2.40;;;0.93;;
78453;SDS011;67750;55.832;49.124;2023-05-10T08:43:56;2.58;;;1.10;;
78453;SDS011;67750;55.832;49.124;2023-05-10T08:46:25;3.00;;;1.00;;
78453;SDS011;67750;55.832;49.124;2023-05-10T08:48:55;2.25;;;0.78;;
78453;SDS011;67750;55.832;49.124;2023-05-10T08:51:26;1.47;;;0.90;;
78453;SDS011;67750;55.832;49.124;2023-05-10T08:53:56;2.55;;;1.40;;
78453;SDS011;67750;55.832;49.124;2023-05-10T08:56:26;2.55;;;1.02;;
78453;SDS011;67750;55.832;49.124;2023-05-10T08:58:57;2.98;;;1.32;;
78453;SDS011;67750;55.832;49.124;2023-05-10T09:01:27;5.87;;;1.25;;
78453;SDS011;67750;55.832;49.124;2023-05-10T09:03:57;2.80;;;0.98;;
78453;SDS011;67750;55.832;49.124;2023-05-10T09:06:27;2.77;;;0.82;;
78453;SDS011;67750;55.832;49.124;2023-05-10T09:08:56;1.55;;;0.70;;
78453;SDS011;67750;55.832;49.124;2023-05-10T09:11:27;4.15;;;1.12;;
78453;SDS011;67750;55.832;49.124;2023-05-10T09:13:57;3.70;;;0.90;;
78453;SDS011;67750;55.832;49.124;2023-05-10T09:16:26;2.05;;;1.00;;
78453;SDS011;67750;55.832;49.124;2023-05-10T09:18:55;1.95;;;0.80;;
78453;SDS011;67750;55.832;49.124;2023-05-10T09:21:25;2.72;;;0.80;;
78453;SDS011;67750;55.832;49.124;2023-05-10T09:23:54;1.27;;;0.72;;
78453;SDS011;67750;55.832;49.124;2023-05-10T09:26:24;3.10;;;0.88;;
78453;SDS011;67750;55.832;49.124;2023-05-10T09:31:43;2.27;;;0.90;;
78453;SDS011;67750;55.832;49.124;2023-05-10T09:34:33;2.15;;;0.98;;
78453;SDS011;67750;55.832;49.124;2023-05-10T09:37:04;2.37;;;0.98;;
78453;SDS011;67750;55.832;49.124;2023-05-10T09:39:35;1.67;;;0.80;;
78453;SDS011;67750;55.832;49.124;2023-05-10T09:44:58;4.55;;;1.15;;
78453;SDS011;67750;55.832;49.124;2023-05-10T09:47:25;3.30;;;1.20;;
78453;SDS011;67750;55.832;49.124;2023-05-10T09:49:55;3.70;;;1.00;;
78453;SDS011;67750;55.832;49.124;2023-05-10T09:52:28;2.27;;;1.00;;
78453;SDS011;67750;55.832;49.124;2023-05-10T09:54:58;2.85;;;1.17;;
78453;SDS011;67750;55.832;49.124;2023-05-10T09:57:27;4.67;;;0.80;;
78453;SDS011;67750;55.832;49.124;2023-05-10T09:59:57;1.90;;;0.80;;
78453;SDS011;67750;55.832;49.124;2023-05-10T10:04:56;2.55;;;0.93;;
78453;SDS011;67750;55.832;49.124;2023-05-10T10:07:25;2.95;;;0.70;;
78453;SDS011;67750;55.832;49.124;2023-05-10T10:09:55;5.33;;;1.32;;
78453;SDS011;67750;55.832;49.124;2023-05-10T10:12:24;4.40;;;1.00;;
78453;SDS011;67750;55.832;49.124;2023-05-10T10:14:54;2.33;;;0.80;;
78453;SDS011;67750;55.832;49.124;2023-05-10T10:17:24;1.95;;;0.93;;
78453;SDS011;67750;55.832;49.124;2023-05-10T10:19:56;3.60;;;1.05;;
78453;SDS011;67750;55.832;49.124;2023-05-10T10:22:26;3.87;;;0.80;;
78453;SDS011;67750;55.832;49.124;2023-05-10T10:24:56;3.15;;;1.07;;
78453;SDS011;67750;55.832;49.124;2023-05-10T10:27:28;1.80;;;0.90;;
78453;SDS011;67750;55.832;49.124;2023-05-10T10:35:36;2.58;;;0.82;;
78453;SDS011;67750;55.832;49.124;2023-05-10T10:38:07;2.37;;;1.10;;
78453;SDS011;67750;55.832;49.124;2023-05-10T10:40:37;2.30;;;0.80;;
78453;SDS011;67750;55.832;49.124;2023-05-10T10:48:48;2.67;;;1.17;;
78453;SDS011;67750;55.832;49.124;2023-05-10T10:51:19;6.28;;;1.00;;
78453;SDS011;67750;55.832;49.124;2023-05-10T10:53:50;1.30;;;0.80;;
78453;SDS011;67750;55.832;49.124;2023-05-10T10:56:21;3.87;;;1.10;;
78453;SDS011;67750;55.832;49.124;2023-05-10T10:58:51;2.62;;;0.93;;
78453;SDS011;67750;55.832;49.124;2023-05-10T11:01:20;1.95;;;0.88;;
78453;SDS011;67750;55.832;49.124;2023-05-10T11:06:39;2.27;;;1.25;;
78453;SDS011;67750;55.832;49.124;2023-05-10T11:11:58;3.45;;;1.17;;
78453;SDS011;67750;55.832;49.124;2023-05-10T11:14:28;2.45;;;1.00;;
78453;SDS011;67750;55.832;49.124;2023-05-10T11:17:00;2.70;;;0.90;;
78453;SDS011;67750;55.832;49.124;2023-05-10T11:19:30;3.42;;;1.02;;
78453;SDS011;67750;55.832;49.124;2023-05-10T11:24:56;1.67;;;0.90;;
78453;SDS011;67750;55.832;49.124;2023-05-10T11:32:38;1.80;;;0.90;;
78453;SDS011;67750;55.832;49.124;2023-05-10T11:37:57;2.47;;;1.10;;
78453;SDS011;67750;55.832;49.124;2023-05-10T11:40:27;4.58;;;1.10;;
78453;SDS011;67750;55.832;49.124;2023-05-10T11:42:57;1.52;;;0.82;;
78453;SDS011;67750;55.832;49.124;2023-05-10T11:45:26;2.35;;;0.88;;
78453;SDS011;67750;55.832;49.124;2023-05-10T11:47:56;2.30;;;0.90;;
78453;SDS011;67750;55.832;49.124;2023-05-10T11:50:27;7.42;;;1.20;;
78453;SDS011;67750;55.832;49.124;2023-05-10T11:52:56;2.42;;;1.00;;
78453;SDS011;67750;55.832;49.124;2023-05-10T11:55:26;1.67;;;0.80;;
78453;SDS011;67750;55.832;49.124;2023-05-10T11:58:00;3.50;;;0.90;;
78453;SDS011;67750;55.832;49.124;2023-05-10T12:00:28;2.08;;;1.10;;
78453;SDS011;67750;55.832;49.124;2023-05-10T12:02:59;3.33;;;0.95;;
78453;SDS011;67750;55.832;49.124;2023-05-10T12:05:31;3.67;;;1.27;;
78453;SDS011;67750;55.832;49.124;2023-05-10T12:10:50;1.98;;;0.90;;
78453;SDS011;67750;55.832;49.124;2023-05-10T12:13:20;2.52;;;1.10;;
78453;SDS011;67750;55.832;49.124;2023-05-10T12:15:49;3.12;;;1.20;;
78453;SDS011;67750;55.832;49.124;2023-05-10T12:18:22;3.55;;;0.93;;
78453;SDS011;67750;55.832;49.124;2023-05-10T12:23:40;4.53;;;1.12;;
78453;SDS011;67750;55.832;49.124;2023-05-10T12:26:10;2.90;;;1.10;;
78453;SDS011;67750;55.832;49.124;2023-05-10T12:28:40;1.85;;;1.05;;
78453;SDS011;67750;55.832;49.124;2023-05-10T12:31:09;2.17;;;0.95;;
78453;SDS011;67750;55.832;49.124;2023-05-10T12:33:40;2.70;;;0.85;;
78453;SDS011;67750;55.832;49.124;2023-05-10T12:36:10;1.98;;;0.80;;
78453;SDS011;67750;55.832;49.124;2023-05-10T12:38:41;2.77;;;1.10;;
78453;SDS011;67750;55.832;49.124;2023-05-10T12:41:11;3.70;;;0.93;;
78453;SDS011;67750;55.832;49.124;2023-05-10T12:43:41;1.62;;;0.90;;
78453;SDS011;67750;55.832;49.124;2023-05-10T12:46:11;2.65;;;1.20;;
78453;SDS011;67750;55.832;49.124;2023-05-10T12:48:41;2.02;;;0.80;;
78453;SDS011;67750;55.832;49.124;2023-05-10T12:51:11;1.90;;;0.98;;
78453;SDS011;67750;55.832;49.124;2023-05-10T12:53:42;3.10;;;0.88;;
78453;SDS011;67750;55.832;49.124;2023-05-10T12:56:13;2.33;;;0.95;;
78453;SDS011;67750;55.832;49.124;2023-05-10T12:58:43;1.75;;;1.07;;
78453;SDS011;67750;55.832;49.124;2023-05-10T13:01:14;2.02;;;1.00;;
78453;SDS011;67750;55.832;49.124;2023-05-10T13:03:43;2.12;;;1.22;;
78453;SDS011;67750;55.832;49.124;2023-05-10T13:06:13;2.30;;;1.20;;
78453;SDS011;67750;55.832;49.124;2023-05-10T13:08:42;3.30;;;1.20;;
78453;SDS011;67750;55.832;49.124;2023-05-10T13:11:12;2.65;;;0.98;;
78453;SDS011;67750;55.832;49.124;2023-05-10T13:13:43;4.33;;;1.15;;
78453;SDS011;67750;55.832;49.124;2023-05-10T13:16:12;2.98;;;1.00;;
78453;SDS011;67750;55.832;49.124;2023-05-10T13:18:42;1.50;;;0.90;;
78453;SDS011;67750;55.832;49.124;2023-05-10T13:21:11;2.00;;;0.98;;
78453;SDS011;67750;55.832;49.124;2023-05-10T13:23:41;3.85;;;1.40;;
78453;SDS011;67750;55.832;49.124;2023-05-10T13:26:10;4.15;;;0.95;;
78453;SDS011;67750;55.832;49.124;2023-05-10T13:28:40;2.98;;;1.47;;
78453;SDS011;67750;55.832;49.124;2023-05-10T13:31:09;2.85;;;0.90;;
78453;SDS011;67750;55.832;49.124;2023-05-10T13:33:39;2.80;;;1.15;;
78453;SDS011;67750;55.832;49.124;2023-05-10T13:36:08;2.83;;;0.80;;
78453;SDS011;67750;55.832;49.124;2023-05-10T13:38:38;2.10;;;1.00;;
78453;SDS011;67750;55.832;49.124;2023-05-10T13:41:08;3.25;;;1.00;;
78453;SDS011;67750;55.832;49.124;2023-05-10T13:43:37;2.98;;;0.88;;
78453;SDS011;67750;55.832;49.124;2023-05-10T13:46:26;1.85;;;0.82;;
78453;SDS011;67750;55.832;49.124;2023-05-10T13:48:56;2.52;;;0.90;;
78453;SDS011;67750;55.832;49.124;2023-05-10T13:51:26;4.42;;;2.08;;
78453;SDS011;67750;55.832;49.124;2023-05-10T13:53:55;2.25;;;1.10;;
78453;SDS011;67750;55.832;49.124;2023-05-10T13:56:25;4.20;;;0.98;;
78453;SDS011;67750;55.832;49.124;2023-05-10T13:58:55;2.27;;;1.15;;
78453;SDS011;67750;55.832;49.124;2023-05-10T14:01:25;4.15;;;1.00;;
78453;SDS011;67750;55.832;49.124;2023-05-10T14:03:55;3.92;;;1.02;;
78453;SDS011;67750;55.832;49.124;2023-05-10T14:06:24;5.53;;;0.90;;
78453;SDS011;67750;55.832;49.124;2023-05-10T14:08:54;3.45;;;1.10;;
78453;SDS011;67750;55.832;49.124;2023-05-10T14:11:23;2.65;;;0.90;;
78453;SDS011;67750;55.832;49.124;2023-05-10T14:13:53;3.77;;;1.10;;
78453;SDS011;67750;55.832;49.124;2023-05-10T14:16:22;1.60;;;0.90;;
78453;SDS011;67750;55.832;49.124;2023-05-10T14:18:53;2.77;;;1.10;;
78453;SDS011;67750;55.832;49.124;2023-05-10T14:21:22;2.17;;;1.05;;
78453;SDS011;67750;55.832;49.124;2023-05-10T14:23:52;2.62;;;1.07;;
78453;SDS011;67750;55.832;49.124;2023-05-10T14:26:22;4.58;;;1.42;;
78453;SDS011;67750;55.832;49.124;2023-05-10T14:28:53;3.95;;;1.25;;
78453;SDS011;67750;55.832;49.124;2023-05-10T14:31:22;5.87;;;1.40;;
78453;SDS011;67750;55.832;49.124;2023-05-10T14:33:52;2.27;;;1.22;;
78453;SDS011;67750;55.832;49.124;2023-05-10T14:36:22;3.20;;;1.02;;
78453;SDS011;67750;55.832;49.124;2023-05-10T14:38:51;3.33;;;1.15;;
78453;SDS011;67750;55.832;49.124;2023-05-10T14:41:21;2.05;;;0.90;;
78453;SDS011;67750;55.832;49.124;2023-05-10T14:43:52;8.68;;;1.40;;
78453;SDS011;67750;55.832;49.124;2023-05-10T14:46:22;2.45;;;0.90;;
78453;SDS011;67750;55.832;49.124;2023-05-10T14:48:51;3.67;;;1.25;;
78453;SDS011;67750;55.832;49.124;2023-05-10T14:51:21;6.60;;;1.17;;
78453;SDS011;67750;55.832;49.124;2023-05-10T14:53:50;5.20;;;1.20;;
78453;SDS011;67750;55.832;49.124;2023-05-10T14:56:20;2.95;;;1.05;;
78453;SDS011;67750;55.832;49.124;2023-05-10T14:58:49;2.58;;;1.20;;
78453;SDS011;67750;55.832;49.124;2023-05-10T15:01:19;2.55;;;1.05;;
78453;SDS011;67750;55.832;49.124;2023-05-10T15:03:48;3.30;;;1.25;;
78453;SDS011;67750;55.832;49.124;2023-05-10T15:06:20;7.00;;;1.30;;
78453;SDS011;67750;55.832;49.124;2023-05-10T15:08:49;2.95;;;1.12;;
78453;SDS011;67750;55.832;49.124;2023-05-10T15:11:18;2.80;;;1.15;;
78453;SDS011;67750;55.832;49.124;2023-05-10T15:13:48;4.37;;;1.07;;
78453;SDS011;67750;55.832;49.124;2023-05-10T15:16:18;2.77;;;1.22;;
78453;SDS011;67750;55.832;49.124;2023-05-10T15:18:47;2.55;;;1.32;;
78453;SDS011;67750;55.832;49.124;2023-05-10T15:21:17;4.00;;;1.02;;
78453;SDS011;67750;55.832;49.124;2023-05-10T15:23:47;3.75;;;1.15;;
78453;SDS011;67750;55.832;49.124;2023-05-10T15:26:16;1.60;;;1.00;;
78453;SDS011;67750;55.832;49.124;2023-05-10T15:28:46;2.42;;;1.15;;
78453;SDS011;67750;55.832;49.124;2023-05-10T15:31:15;2.17;;;1.05;;
78453;SDS011;67750;55.832;49.124;2023-05-10T15:33:45;6.42;;;1.37;;
78453;SDS011;67750;55.832;49.124;2023-05-10T15:36:14;4.58;;;1.30;;
78453;SDS011;67750;55.832;49.124;2023-05-10T15:38:44;4.78;;;1.40;;
78453;SDS011;67750;55.832;49.124;2023-05-10T15:41:14;5.20;;;1.15;;
78453;SDS011;67750;55.832;49.124;2023-05-10T15:43:43;7.17;;;1.20;;
78453;SDS011;67750;55.832;49.124;2023-05-10T15:46:14;4.20;;;1.72;;
78453;SDS011;67750;55.832;49.124;2023-05-10T15:48:44;7.40;;;2.10;;
78453;SDS011;67750;55.832;49.124;2023-05-10T15:51:13;2.87;;;1.20;;
78453;SDS011;67750;55.832;49.124;2023-05-10T15:53:43;6.30;;;1.60;;
78453;SDS011;67750;55.832;49.124;2023-05-10T15:56:12;4.55;;;1.20;;
78453;SDS011;67750;55.832;49.124;2023-05-10T15:58:42;3.85;;;1.50;;
78453;SDS011;67750;55.832;49.124;2023-05-10T16:01:12;7.70;;;1.50;;
78453;SDS011;67750;55.832;49.124;2023-05-10T16:03:41;4.95;;;1.27;;
78453;SDS011;67750;55.832;49.124;2023-05-10T16:06:11;4.95;;;1.60;;
78453;SDS011;67750;55.832;49.124;2023-05-10T16:08:40;6.58;;;1.40;;
78453;SDS011;67750;55.832;49.124;2023-05-10T16:11:10;5.12;;;1.70;;
78453;SDS011;67750;55.832;49.124;2023-05-10T16:13:39;2.83;;;1.60;;
78453;SDS011;67750;55.832;49.124;2023-05-10T16:16:09;3.45;;;1.22;;
78453;SDS011;67750;55.832;49.124;2023-05-10T16:18:38;2.80;;;1.10;;
78453;SDS011;67750;55.832;49.124;2023-05-10T16:21:08;5.87;;;1.40;;
78453;SDS011;67750;55.832;49.124;2023-05-10T16:23:37;8.03;;;2.37;;